createdAt,value
2017-10-04T00:01:11.818Z,11.50
2017-10-04T00:03:39.402Z,11.50
2017-10-04T00:06:06.997Z,11.50
2017-10-04T00:08:35.718Z,11.60
2017-10-04T00:11:03.319Z,11.60
2017-10-04T00:13:30.902Z,11.60
2017-10-04T00:15:59.271Z,11.70
2017-10-04T00:18:27.619Z,11.70
2017-10-04T00:20:55.191Z,11.70
2017-10-04T00:23:22.786Z,11.70
2017-10-04T00:25:51.130Z,11.70
2017-10-04T00:28:19.063Z,11.70
2017-10-04T00:30:46.620Z,11.70
2017-10-04T00:33:14.219Z,11.70
2017-10-04T00:35:41.793Z,11.70
2017-10-04T00:38:09.382Z,11.80
2017-10-04T00:40:37.826Z,11.80
2017-10-04T00:43:05.383Z,11.80
2017-10-04T00:45:32.975Z,11.70
2017-10-04T00:48:01.504Z,11.70
2017-10-04T00:50:29.112Z,11.60
2017-10-04T00:52:57.022Z,11.60
2017-10-04T00:55:24.598Z,11.60
2017-10-04T00:57:52.146Z,11.60
2017-10-04T01:00:19.716Z,11.50
2017-10-04T01:02:47.673Z,11.50
2017-10-04T01:05:15.238Z,11.50
2017-10-04T01:07:42.838Z,11.50
2017-10-04T01:10:10.414Z,11.50
2017-10-04T01:12:38.962Z,11.50
2017-10-04T01:15:06.515Z,11.50
2017-10-04T01:17:34.094Z,11.50
2017-10-04T01:20:01.668Z,11.50
2017-10-04T01:22:29.243Z,11.50
2017-10-04T01:24:57.579Z,11.50
2017-10-04T01:27:25.158Z,11.50
2017-10-04T01:29:52.803Z,11.50
2017-10-04T01:32:20.358Z,11.40
2017-10-04T01:34:48.316Z,11.40
2017-10-04T01:37:15.893Z,11.30
2017-10-04T01:39:43.470Z,11.30
2017-10-04T01:42:11.076Z,11.30
2017-10-04T01:44:38.759Z,11.30
2017-10-04T01:47:06.310Z,11.20
2017-10-04T01:49:33.874Z,11.20
2017-10-04T01:52:01.455Z,11.20
2017-10-04T01:54:29.025Z,11.20
2017-10-04T01:56:56.631Z,11.20
2017-10-04T01:59:24.953Z,11.20
2017-10-04T02:01:52.534Z,11.20
2017-10-04T02:04:20.141Z,11.20
2017-10-04T02:06:48.659Z,11.20
2017-10-04T02:09:16.225Z,11.20
2017-10-04T02:11:43.782Z,11.30
2017-10-04T02:14:11.385Z,11.30
2017-10-04T02:16:39.047Z,11.30
2017-10-04T02:19:06.641Z,11.30
2017-10-04T02:21:34.215Z,11.30
2017-10-04T02:24:01.815Z,11.30
2017-10-04T02:26:29.394Z,11.30
2017-10-04T02:28:56.961Z,11.30
2017-10-04T02:31:25.336Z,11.30
2017-10-04T02:33:52.909Z,11.30
2017-10-04T02:36:21.627Z,11.40
2017-10-04T02:38:49.204Z,11.40
2017-10-04T02:41:16.799Z,11.40
2017-10-04T02:43:44.387Z,11.40
2017-10-04T02:46:13.054Z,11.40
2017-10-04T02:48:40.653Z,11.40
2017-10-04T02:51:08.258Z,11.40
2017-10-04T02:53:35.875Z,11.40
2017-10-04T02:56:03.441Z,11.40
2017-10-04T02:58:31.008Z,11.50
2017-10-04T03:00:58.573Z,11.40
2017-10-04T03:03:26.162Z,11.40
2017-10-04T03:05:53.766Z,11.40
2017-10-04T03:08:21.338Z,11.40
2017-10-04T03:10:48.906Z,11.40
2017-10-04T03:13:17.270Z,11.30
2017-10-04T03:15:44.955Z,11.30
2017-10-04T03:18:13.365Z,11.30
2017-10-04T03:20:40.925Z,11.30
2017-10-04T03:23:08.499Z,11.30
2017-10-04T03:25:36.252Z,11.30
2017-10-04T03:28:03.832Z,11.30
2017-10-04T03:30:31.412Z,11.20
2017-10-04T03:32:59.814Z,11.20
2017-10-04T03:35:28.176Z,11.10
2017-10-04T03:37:56.505Z,11.10
2017-10-04T03:40:24.113Z,11.10
2017-10-04T03:42:52.469Z,11.10
2017-10-04T03:45:20.198Z,11.10
2017-10-04T03:47:47.777Z,11.00
2017-10-04T03:50:15.614Z,11.00
2017-10-04T03:52:43.202Z,11.00
2017-10-04T03:55:10.776Z,11.10
2017-10-04T03:57:38.357Z,11.10
2017-10-04T04:00:06.694Z,11.20
2017-10-04T04:02:34.286Z,11.20
2017-10-04T04:05:01.857Z,11.20
2017-10-04T04:07:30.225Z,11.20
2017-10-04T04:09:57.825Z,11.20
2017-10-04T04:12:25.435Z,11.20
2017-10-04T04:14:53.021Z,11.20
2017-10-04T04:17:20.594Z,11.20
2017-10-04T04:19:48.962Z,11.20
2017-10-04T04:22:17.294Z,11.20
2017-10-04T04:24:44.864Z,11.20
2017-10-04T04:27:12.438Z,11.20
2017-10-04T04:29:40.017Z,11.20
2017-10-04T04:32:08.366Z,11.20
2017-10-04T04:34:35.944Z,11.20
2017-10-04T04:37:03.538Z,11.20
2017-10-04T04:39:31.148Z,11.10
2017-10-04T04:41:58.726Z,11.10
2017-10-04T04:44:26.282Z,11.20
2017-10-04T04:46:53.877Z,11.20
2017-10-04T04:49:22.230Z,11.10
2017-10-04T04:51:49.814Z,11.10
2017-10-04T04:54:18.158Z,11.10
2017-10-04T04:56:45.745Z,11.10
2017-10-04T04:59:14.101Z,11.10
2017-10-04T05:01:41.678Z,11.10
2017-10-04T05:04:09.458Z,11.10
2017-10-04T05:06:37.791Z,11.00
2017-10-04T05:09:05.349Z,11.00
2017-10-04T05:11:32.933Z,11.00
2017-10-04T05:14:00.522Z,10.90
2017-10-04T05:16:28.886Z,10.80
2017-10-04T05:18:57.235Z,10.80
2017-10-04T05:21:24.821Z,10.80
2017-10-04T05:23:52.417Z,10.80
2017-10-04T05:26:19.994Z,10.90
2017-10-04T05:28:47.572Z,10.90
2017-10-04T05:31:15.150Z,10.90
2017-10-04T05:33:42.754Z,10.80
2017-10-04T05:36:10.326Z,10.80
2017-10-04T05:38:37.950Z,10.80
2017-10-04T05:41:05.565Z,10.80
2017-10-04T05:43:33.140Z,10.80
2017-10-04T05:46:00.739Z,10.80
2017-10-04T05:48:28.318Z,10.80
2017-10-04T05:50:56.664Z,10.90
2017-10-04T05:53:24.238Z,10.80
2017-10-04T05:55:51.830Z,10.90
2017-10-04T05:58:19.398Z,10.90
2017-10-04T06:00:46.959Z,10.90
2017-10-04T06:03:14.554Z,10.90
2017-10-04T06:05:42.134Z,11.00
2017-10-04T06:08:09.722Z,11.00
2017-10-04T06:10:38.075Z,11.00
2017-10-04T06:13:05.708Z,11.00
2017-10-04T06:15:33.270Z,10.90
2017-10-04T06:18:00.840Z,10.90
2017-10-04T06:20:28.435Z,10.90
2017-10-04T06:22:55.986Z,11.00
2017-10-04T06:25:23.592Z,11.00
2017-10-04T06:27:51.152Z,11.10
2017-10-04T06:30:19.027Z,11.20
2017-10-04T06:32:46.594Z,11.40
2017-10-04T06:35:14.178Z,11.50
2017-10-04T06:37:41.743Z,11.60
2017-10-04T06:40:09.434Z,11.60
2017-10-04T06:42:37.778Z,11.60
2017-10-04T06:45:05.363Z,11.60
2017-10-04T06:47:33.711Z,11.80
2017-10-04T06:50:01.310Z,11.80
2017-10-04T06:52:29.753Z,11.90
2017-10-04T06:54:57.356Z,11.90
2017-10-04T06:57:25.685Z,12.20
2017-10-04T06:59:53.354Z,12.20
2017-10-04T07:02:21.813Z,12.30
2017-10-04T07:04:49.394Z,12.30
2017-10-04T07:07:16.948Z,12.30
2017-10-04T07:09:44.526Z,12.20
2017-10-04T07:12:12.121Z,12.20
2017-10-04T07:14:40.454Z,12.30
2017-10-04T07:17:08.049Z,12.30
2017-10-04T07:19:35.656Z,12.30
2017-10-04T07:22:03.251Z,12.30
2017-10-04T07:24:30.830Z,12.20
2017-10-04T07:26:58.401Z,12.20
2017-10-04T07:29:26.786Z,12.50
2017-10-04T07:31:55.108Z,12.50
2017-10-04T07:34:22.761Z,12.50
2017-10-04T07:36:50.321Z,13.00
2017-10-04T07:39:17.909Z,13.70
2017-10-04T07:41:45.471Z,14.00
2017-10-04T07:44:13.099Z,14.20
2017-10-04T07:46:40.650Z,14.20
2017-10-04T07:49:08.224Z,14.60
2017-10-04T07:51:35.815Z,15.20
2017-10-04T07:54:03.584Z,15.50
2017-10-04T07:56:31.161Z,15.60
2017-10-04T07:58:58.739Z,15.60
2017-10-04T08:01:27.102Z,15.20
2017-10-04T08:03:54.678Z,15.20
2017-10-04T08:06:23.033Z,15.30
2017-10-04T08:08:50.601Z,15.30
2017-10-04T08:11:18.193Z,15.40
2017-10-04T08:13:46.525Z,15.70
2017-10-04T08:16:14.157Z,15.70
2017-10-04T08:18:41.990Z,15.60
2017-10-04T08:21:10.312Z,15.80
2017-10-04T08:23:37.906Z,15.80
2017-10-04T08:26:05.486Z,15.50
2017-10-04T08:28:33.098Z,15.30
2017-10-04T08:31:00.666Z,14.90
2017-10-04T08:33:28.276Z,14.70
2017-10-04T08:35:57.099Z,14.50
2017-10-04T08:38:24.654Z,14.50
2017-10-04T08:40:52.243Z,14.70
2017-10-04T08:43:19.830Z,14.80
2017-10-04T08:45:47.409Z,14.90
2017-10-04T08:48:27.503Z,14.30
2017-10-04T08:50:55.082Z,14.20
2017-10-04T08:53:22.673Z,14.10
2017-10-04T08:55:50.284Z,14.10
2017-10-04T08:58:17.853Z,14.10
2017-10-04T09:00:45.431Z,14.10
2017-10-04T09:03:13.017Z,14.20
2017-10-04T09:05:44.486Z,14.10
2017-10-04T09:08:12.804Z,14.70
2017-10-04T09:10:40.401Z,14.70
2017-10-04T09:13:07.972Z,14.80
2017-10-04T09:15:35.539Z,14.90
2017-10-04T09:18:03.879Z,15.10
2017-10-04T09:20:31.450Z,15.00
2017-10-04T09:22:59.014Z,15.60
2017-10-04T09:25:26.602Z,15.90
2017-10-04T09:27:54.170Z,16.00
2017-10-04T09:30:22.541Z,16.20
2017-10-04T09:32:51.165Z,15.90
2017-10-04T09:35:18.783Z,15.90
2017-10-04T09:37:47.149Z,15.50
2017-10-04T09:40:14.761Z,15.50
2017-10-04T09:42:42.314Z,15.40
2017-10-04T09:45:10.669Z,15.30
2017-10-04T09:47:39.009Z,15.10
2017-10-04T09:50:06.600Z,15.10
2017-10-04T09:52:34.174Z,15.00
2017-10-04T09:55:02.529Z,14.80
2017-10-04T09:57:30.117Z,14.80
2017-10-04T09:59:58.466Z,14.50
2017-10-04T10:02:26.126Z,14.50
2017-10-04T10:04:53.709Z,14.30
2017-10-04T10:07:22.039Z,14.10
2017-10-04T10:09:49.830Z,14.10
2017-10-04T10:12:17.569Z,14.10
2017-10-04T10:14:45.170Z,13.90
2017-10-04T10:17:12.749Z,13.90
2017-10-04T10:19:41.078Z,14.00
2017-10-04T10:22:08.689Z,14.00
2017-10-04T10:24:37.026Z,14.00
2017-10-04T10:27:04.612Z,14.00
2017-10-04T10:29:32.230Z,14.00
2017-10-04T10:31:59.848Z,14.20
2017-10-04T10:34:27.407Z,14.10
2017-10-04T10:36:55.751Z,14.10
2017-10-04T10:39:23.337Z,14.10
2017-10-04T10:41:50.907Z,14.10
2017-10-04T10:44:18.496Z,14.00
2017-10-04T10:46:46.071Z,14.10
2017-10-04T10:49:13.650Z,14.10
2017-10-04T10:51:41.246Z,14.20
2017-10-04T10:54:08.819Z,14.10
2017-10-04T10:56:36.414Z,14.00
2017-10-04T10:59:03.988Z,14.00
2017-10-04T11:01:31.551Z,14.20
2017-10-04T11:03:59.119Z,14.40
2017-10-04T11:06:26.696Z,14.80
2017-10-04T11:08:54.252Z,15.00
2017-10-04T11:11:21.864Z,15.30
2017-10-04T11:13:49.542Z,15.30
2017-10-04T11:16:17.143Z,15.20
2017-10-04T11:18:44.970Z,15.10
2017-10-04T11:21:12.528Z,15.50
2017-10-04T11:23:40.148Z,15.80
2017-10-04T11:26:07.810Z,15.70
2017-10-04T11:28:35.393Z,15.50
2017-10-04T11:31:03.752Z,15.50
2017-10-04T11:33:32.113Z,15.30
2017-10-04T11:35:59.781Z,15.30
2017-10-04T11:38:27.338Z,15.20
2017-10-04T11:40:54.936Z,15.30
2017-10-04T11:43:23.295Z,15.30
2017-10-04T11:45:51.682Z,15.60
2017-10-04T11:48:19.601Z,15.60
2017-10-04T11:50:47.222Z,15.90
2017-10-04T11:53:15.727Z,15.60
2017-10-04T11:55:43.291Z,15.60
2017-10-04T11:58:10.882Z,15.20
2017-10-04T12:00:38.482Z,15.10
2017-10-04T12:03:06.814Z,15.00
2017-10-04T12:05:34.387Z,15.00
2017-10-04T12:08:01.985Z,15.00
2017-10-04T12:10:30.565Z,14.90
2017-10-04T12:12:58.922Z,14.90
2017-10-04T12:15:26.489Z,14.90
2017-10-04T12:17:54.302Z,14.90
2017-10-04T12:20:21.878Z,15.00
2017-10-04T12:22:49.674Z,15.00
2017-10-04T12:25:17.847Z,14.90
2017-10-04T12:27:45.426Z,15.00
2017-10-04T12:30:13.017Z,15.10
2017-10-04T12:32:41.201Z,15.10
2017-10-04T12:35:09.597Z,15.20
2017-10-04T12:37:37.209Z,15.20
2017-10-04T12:40:04.750Z,15.10
2017-10-04T12:42:32.320Z,15.00
2017-10-04T12:45:00.135Z,14.90
2017-10-04T12:47:27.750Z,14.90
2017-10-04T12:49:55.323Z,15.00
2017-10-04T12:52:22.916Z,14.80
2017-10-04T12:54:50.497Z,14.80
2017-10-04T12:57:18.063Z,14.80
2017-10-04T12:59:45.679Z,14.70
2017-10-04T13:02:13.293Z,14.70
2017-10-04T13:04:40.846Z,14.70
2017-10-04T13:07:08.429Z,14.80
2017-10-04T13:09:36.017Z,14.80
2017-10-04T13:12:04.363Z,14.70
2017-10-04T13:14:32.101Z,14.70
2017-10-04T13:16:59.664Z,14.70
2017-10-04T13:19:27.274Z,14.70
2017-10-04T13:21:54.859Z,14.80
2017-10-04T13:24:22.438Z,14.80
2017-10-04T13:26:50.095Z,14.80
2017-10-04T13:29:17.665Z,14.70
2017-10-04T13:31:45.246Z,14.70
2017-10-04T13:34:12.814Z,14.60
2017-10-04T13:36:41.186Z,14.50
2017-10-04T13:39:08.770Z,14.60
2017-10-04T13:41:36.338Z,14.50
2017-10-04T13:44:03.937Z,14.50
2017-10-04T13:46:31.490Z,14.50
2017-10-04T13:48:59.474Z,14.50
2017-10-04T13:51:27.100Z,14.40
2017-10-04T13:53:54.722Z,14.40
2017-10-04T13:56:23.153Z,14.30
2017-10-04T13:58:51.554Z,14.30
2017-10-04T14:01:19.155Z,14.40
2017-10-04T14:03:46.743Z,14.30
2017-10-04T14:06:14.431Z,14.30
2017-10-04T14:08:42.028Z,14.30
2017-10-04T14:11:09.601Z,14.20
2017-10-04T14:13:37.214Z,14.20
2017-10-04T14:16:04.806Z,14.20
2017-10-04T14:18:32.414Z,14.20
2017-10-04T14:20:59.978Z,14.20
2017-10-04T14:23:28.350Z,14.10
2017-10-04T14:25:55.954Z,14.10
2017-10-04T14:28:23.560Z,14.10
2017-10-04T14:30:51.156Z,14.00
2017-10-04T14:33:18.795Z,14.00
2017-10-04T14:35:46.395Z,13.90
2017-10-04T14:38:13.991Z,13.90
2017-10-04T14:40:41.563Z,13.90
2017-10-04T14:43:09.168Z,13.90
2017-10-04T14:45:36.763Z,13.90
2017-10-04T14:48:04.379Z,13.90
2017-10-04T14:50:32.735Z,13.80
2017-10-04T14:53:00.315Z,13.80
2017-10-04T14:55:28.694Z,13.70
2017-10-04T14:57:57.238Z,13.70
2017-10-04T15:00:24.856Z,13.70
2017-10-04T15:02:52.437Z,13.60
2017-10-04T15:05:20.005Z,13.60
2017-10-04T15:07:47.617Z,13.60
2017-10-04T15:10:15.990Z,13.50
2017-10-04T15:12:43.618Z,13.50
2017-10-04T15:15:11.195Z,13.50
2017-10-04T15:17:38.863Z,13.50
2017-10-04T15:20:06.436Z,13.50
2017-10-04T15:22:34.035Z,13.40
2017-10-04T15:25:01.698Z,13.40
2017-10-04T15:27:29.309Z,13.40
2017-10-04T15:29:56.879Z,13.40
2017-10-04T15:32:24.476Z,13.30
2017-10-04T15:34:52.848Z,13.30
2017-10-04T15:37:21.191Z,13.30
2017-10-04T15:39:48.778Z,13.30
2017-10-04T15:42:17.509Z,13.30
2017-10-04T15:44:45.081Z,13.20
2017-10-04T15:47:12.677Z,13.30
2017-10-04T15:49:40.297Z,13.30
2017-10-04T15:52:07.878Z,13.30
2017-10-04T15:54:35.667Z,13.30
2017-10-04T15:57:03.267Z,13.30
2017-10-04T15:59:30.874Z,13.30
2017-10-04T16:01:58.450Z,13.20
2017-10-04T16:04:26.813Z,13.20
2017-10-04T16:06:54.840Z,13.20
2017-10-04T16:09:22.939Z,13.10
2017-10-04T16:11:50.528Z,13.10
2017-10-04T16:14:18.132Z,13.10
2017-10-04T16:16:45.748Z,13.00
2017-10-04T16:19:13.318Z,13.00
2017-10-04T16:21:41.666Z,13.00
2017-10-04T16:24:09.294Z,13.00
2017-10-04T16:26:37.276Z,13.00
2017-10-04T16:29:04.859Z,12.90
2017-10-04T16:31:32.446Z,12.90
2017-10-04T16:34:00.270Z,12.90
2017-10-04T16:36:28.285Z,12.90
2017-10-04T16:51:55.903Z,12.90
2017-10-04T16:54:23.546Z,12.70
2017-10-04T16:56:51.159Z,12.70
2017-10-04T16:59:18.731Z,12.80
2017-10-04T17:01:47.089Z,12.80
2017-10-04T17:04:14.695Z,12.80
2017-10-04T17:06:43.074Z,12.80
2017-10-04T17:09:10.698Z,12.70
2017-10-04T17:11:38.318Z,12.80
2017-10-04T17:14:06.033Z,12.70
2017-10-04T17:16:33.602Z,12.70
2017-10-04T17:19:01.964Z,12.80
2017-10-04T17:21:29.560Z,12.80
2017-10-04T17:23:57.172Z,12.80
2017-10-04T17:26:25.010Z,12.70
2017-10-04T17:28:52.797Z,12.70
2017-10-04T17:31:20.385Z,12.70
2017-10-04T17:33:48.010Z,12.70
2017-10-04T17:36:15.631Z,12.70
2017-10-04T17:38:43.989Z,12.70
2017-10-04T17:41:11.596Z,12.70
2017-10-04T17:43:39.211Z,12.70
2017-10-04T17:46:07.090Z,12.70
2017-10-04T17:48:34.658Z,12.70
2017-10-04T17:51:03.048Z,12.70
2017-10-04T17:53:31.430Z,12.70
2017-10-04T17:55:59.022Z,12.70
2017-10-04T17:58:26.629Z,12.70
2017-10-04T18:00:54.210Z,12.70
2017-10-04T18:03:22.574Z,12.60
2017-10-04T18:05:50.932Z,12.60
2017-10-04T18:08:18.758Z,12.60
2017-10-04T18:10:46.397Z,12.70
2017-10-04T18:13:14.847Z,12.70
2017-10-04T18:15:42.431Z,12.70
2017-10-04T18:18:10.821Z,12.70
2017-10-04T18:20:39.183Z,12.70
2017-10-04T18:23:07.531Z,12.70
2017-10-04T18:25:35.147Z,12.60
2017-10-04T18:28:02.724Z,12.70
2017-10-04T18:30:30.508Z,12.70
2017-10-04T18:32:58.151Z,12.70
2017-10-04T18:35:25.841Z,12.70
2017-10-04T18:37:53.450Z,12.70
2017-10-04T18:40:22.002Z,12.60
2017-10-04T18:42:50.442Z,12.60
2017-10-04T18:45:18.020Z,12.60
2017-10-04T18:47:45.688Z,12.60
2017-10-04T18:50:13.283Z,12.60
2017-10-04T18:52:40.892Z,12.50
2017-10-04T18:55:08.526Z,12.60
2017-10-04T18:57:36.914Z,12.60
2017-10-04T19:00:04.743Z,12.60
2017-10-04T19:02:32.326Z,12.60
2017-10-04T19:05:00.687Z,12.60
2017-10-04T19:07:28.469Z,12.60
2017-10-04T19:09:56.064Z,12.60
2017-10-04T19:12:23.687Z,12.60
2017-10-04T19:14:51.298Z,12.60
2017-10-04T19:17:19.532Z,12.70
2017-10-04T19:19:47.946Z,12.60
2017-10-04T19:22:15.565Z,12.60
2017-10-04T19:24:43.147Z,12.70
2017-10-04T19:27:11.699Z,12.60
2017-10-04T19:29:39.308Z,12.60
2017-10-04T19:32:06.983Z,12.60
2017-10-04T19:34:34.609Z,12.60
2017-10-04T19:37:03.193Z,12.60
2017-10-04T19:39:31.570Z,12.60
2017-10-04T19:41:59.926Z,12.60
2017-10-04T19:44:27.571Z,12.50
2017-10-04T19:46:55.133Z,12.60
2017-10-04T19:49:22.740Z,12.60
2017-10-04T19:51:51.127Z,12.50
2017-10-04T19:54:18.726Z,12.60
2017-10-04T19:56:46.576Z,12.50
2017-10-04T19:59:14.155Z,12.50
2017-10-04T20:01:41.974Z,12.50
2017-10-04T20:04:10.589Z,12.60
2017-10-04T20:06:38.187Z,12.50
2017-10-04T20:09:05.834Z,12.60
2017-10-04T20:11:33.445Z,12.60
2017-10-04T20:14:02.033Z,12.60
2017-10-04T20:16:30.382Z,12.60
2017-10-04T20:18:58.002Z,12.60
2017-10-04T20:21:25.755Z,12.60
2017-10-04T20:23:53.375Z,12.60
2017-10-04T20:26:21.876Z,12.60
2017-10-04T20:28:49.470Z,12.60
2017-10-04T20:31:17.069Z,12.60
2017-10-04T20:33:44.722Z,12.60
2017-10-04T20:36:12.654Z,12.60
2017-10-04T20:38:40.228Z,12.60
2017-10-04T20:41:07.848Z,12.70
2017-10-04T20:43:35.457Z,12.70
2017-10-04T20:46:03.083Z,12.60
2017-10-04T20:48:31.478Z,12.70
2017-10-04T20:50:59.798Z,12.70
2017-10-04T20:53:27.425Z,12.70
2017-10-04T20:55:55.027Z,12.70
2017-10-04T20:58:22.651Z,12.70
2017-10-04T21:00:50.237Z,12.70
2017-10-04T21:03:17.829Z,12.70
2017-10-04T21:05:45.417Z,12.70
2017-10-04T21:08:13.005Z,12.80
2017-10-04T21:10:40.618Z,12.70
2017-10-04T21:13:08.222Z,12.80
2017-10-04T21:15:35.990Z,12.80
2017-10-04T21:18:03.584Z,12.70
2017-10-04T21:20:31.206Z,12.80
2017-10-04T21:22:58.809Z,12.80
2017-10-04T21:25:26.403Z,12.80
2017-10-04T21:27:54.746Z,12.80
2017-10-04T21:30:22.345Z,12.80
2017-10-04T21:32:50.683Z,12.80
2017-10-04T21:35:18.273Z,12.80
2017-10-04T21:37:46.067Z,12.80
2017-10-04T21:40:14.389Z,12.80
2017-10-04T21:42:42.014Z,12.80
2017-10-04T21:45:09.597Z,12.80
2017-10-04T21:47:37.186Z,12.80
2017-10-04T21:50:04.767Z,12.80
2017-10-04T21:52:33.106Z,12.80
2017-10-04T21:55:00.686Z,12.80
2017-10-04T21:57:28.365Z,12.80
2017-10-04T21:59:56.703Z,12.80
2017-10-04T22:02:24.277Z,12.80
2017-10-04T22:04:51.862Z,12.70
2017-10-04T22:07:19.474Z,12.70
2017-10-04T22:09:47.058Z,12.70
2017-10-04T22:12:14.634Z,12.70
2017-10-04T22:14:42.206Z,12.70
2017-10-04T22:17:09.801Z,12.60
2017-10-04T22:19:37.362Z,12.60
2017-10-04T22:22:05.010Z,12.60
2017-10-04T22:24:32.598Z,12.50
2017-10-04T22:27:00.167Z,12.50
2017-10-04T22:29:28.231Z,12.50
2017-10-04T22:31:55.830Z,12.40
2017-10-04T22:34:23.410Z,12.40
2017-10-04T22:36:50.979Z,12.30
2017-10-04T22:39:19.319Z,12.20
2017-10-04T22:41:47.079Z,12.20
2017-10-04T22:44:14.690Z,12.10
2017-10-04T22:46:43.012Z,11.90
2017-10-04T22:49:10.608Z,11.90
2017-10-04T22:51:38.160Z,11.90
2017-10-04T22:54:05.943Z,11.90
2017-10-04T22:56:33.842Z,11.80
2017-10-04T22:59:01.390Z,11.80
2017-10-04T23:01:28.973Z,11.80
2017-10-04T23:03:56.558Z,11.80
2017-10-04T23:06:24.110Z,11.80
2017-10-04T23:08:51.754Z,11.80
2017-10-04T23:11:19.829Z,11.70
2017-10-04T23:13:47.445Z,11.70
2017-10-04T23:16:15.002Z,11.70
2017-10-04T23:18:42.583Z,11.60
2017-10-04T23:21:10.930Z,11.50
2017-10-04T23:23:38.506Z,11.50
2017-10-04T23:26:06.130Z,11.50
2017-10-04T23:28:35.523Z,11.50
2017-10-04T23:31:03.105Z,11.50
2017-10-04T23:33:30.719Z,11.50
2017-10-04T23:35:59.045Z,11.40
2017-10-04T23:38:26.630Z,11.40
2017-10-04T23:40:54.205Z,11.40
2017-10-04T23:43:22.570Z,11.40
2017-10-04T23:45:50.499Z,11.30
2017-10-04T23:48:18.363Z,11.40
2017-10-04T23:50:45.954Z,11.30
2017-10-04T23:53:13.522Z,11.30
2017-10-04T23:55:41.142Z,11.30
2017-10-04T23:58:08.705Z,11.20
